Flight Track Log - Related Links

Times and Time Zones

All times are in EDT time to prevent confusion due to time zone crossing. See the N27XP flight status page for this flight to view local times or setup timezone preferences in your user account.

Time Position Orientation Groundspeed Altitude Reporting Facility
EDT Latitude Longitude Course Direction KTS MPH feet Rate Location/Type
Tue 04:49:19 PM 35.2436 -79.4781 20° North 170 196 5,400  Level Washington Center
Tue 04:50:20 PM 35.3056 -79.4989 345° North 186 214 7,700 2,579 Climbing Washington Center
Tue 04:51:20 PM 35.3864 -79.5181 349° North 248 285 10,600 2,237 Climbing Washington Center
Tue 04:52:18 PM 35.4581 -79.4961 14° North 275 316 12,100 1,780 Climbing Washington Center
Tue 04:53:18 PM 35.5489 -79.4597 18° North 305 351 14,100 1,918 Climbing Washington Center
Tue 04:54:00 PM 35.5833 -79.4333 20° North  Level FlightAware Approximate
Tue 04:54:20 PM 35.6378 -79.4206 20° North 324 373 16,000  Level Washington Center
Tue 04:55:18 PM 35.7269 -79.3761 22° Northeast 335 386 17,000 1,424 Climbing Washington Center
Tue 04:56:18 PM 35.8075 -79.3392 20° North 335 386 18,800 1,736 Climbing Washington Center
Tue 04:57:19 PM 35.8925 -79.2867 27° Northeast 335 386 20,500 1,672 Climbing Washington Center
Tue 04:58:20 PM 35.9736 -79.2264 31° Northeast 340 391 22,200 1,736 Climbing Washington Center
Tue 04:59:20 PM 36.0428 -79.1497 42° Northeast 340 391 24,000 1,339 Climbing Washington Center
Tue 05:00:21 PM 36.1164 -79.0606 44° Northeast 334 384 24,900 1,068 Climbing Washington Center
Tue 05:01:18 PM 36.1875 -78.9736 45° Northeast 334 384 26,100 915 Climbing Washington Center
Tue 05:02:19 PM 36.2611 -78.8842 44° Northeast 352 405 26,700 443 Climbing Washington Center
Tue 05:03:20 PM 36.3386 -78.7894 45° Northeast 366 421 27,000 148 Climbing Washington Center
Tue 05:04:21 PM 36.4186 -78.6894 45° Northeast 386 444 27,000  Level Washington Center
Tue 05:05:19 PM 36.5025 -78.5842 45° Northeast 407 468 27,000  Level Washington Center
Tue 05:06:19 PM 36.5886 -78.4764 45° Northeast 420 483 27,000 -99 Level Washington Center
Tue 05:07:20 PM 36.6767 -78.3708 44° Northeast 426 490 26,800 -504 Descending Washington Center
Tue 05:08:18 PM 36.7628 -78.2597 46° Northeast 426 490 26,000 -700 Descending Washington Center
Tue 05:09:20 PM 36.8419 -78.1611 45° Northeast 436 502 25,400 -492 Descending Washington Center
Tue 05:10:20 PM 36.9339 -78.0603 41° Northeast 436 502 25,000 -198 Descending Washington Center
Tue 05:11:21 PM 37.0275 -77.9644 39° Northeast 436 502 25,000  Level Washington Center
Tue 05:12:18 PM 37.1233 -77.8711 38° Northeast 431 496 25,000  Level Washington Center
Tue 05:13:18 PM 37.2169 -77.7747 39° Northeast 431 496 25,000  Level Washington Center
Tue 05:14:20 PM 37.3103 -77.6808 39° Northeast 431 496 25,000  Level Washington Center
Tue 05:15:18 PM 37.4081 -77.5814 39° Northeast 431 496 25,000  Level Washington Center
Tue 05:16:18 PM 37.5014 -77.4869 39° Northeast 431 496 25,000  Level Washington Center
Tue 05:17:19 PM 37.5756 -77.4103 39° Northeast 431 496 25,000  Level Washington Center
Tue 05:18:19 PM 37.6897 -77.2950 39° Northeast 431 496 25,000  Level Washington Center
Tue 05:19:20 PM 37.7869 -77.2053 36° Northeast 426 490 25,000  Level Washington Center
Tue 05:20:18 PM 37.8819 -77.1150 37° Northeast 426 490 25,000  Level Washington Center
Tue 05:21:19 PM 37.9792 -77.0250 36° Northeast 426 490 25,000  Level Washington Center
Tue 05:22:20 PM 38.0761 -76.9369 36° Northeast 426 490 25,000  Level Washington Center
Tue 05:23:20 PM 38.1708 -76.8464 37° Northeast 421 484 25,000  Level Washington Center
Tue 05:24:19 PM 38.2678 -76.7553 36° Northeast 421 484 25,000  Level Washington Center
Tue 05:25:19 PM 38.3750 -76.6564 36° Northeast 426 490 25,000  Level Washington Center
Tue 05:26:20 PM 38.4694 -76.5675 36° Northeast 426 490 25,000  Level Washington Center
Tue 05:27:18 PM 38.5661 -76.4758 37° Northeast 426 490 25,000  Level Washington Center
Tue 05:28:19 PM 38.6628 -76.3839 37° Northeast 426 490 25,000  Level Washington Center
Tue 05:29:19 PM 38.7569 -76.2972 36° Northeast 431 496 25,000  Level Washington Center
Tue 05:30:20 PM 38.8514 -76.2075 36° Northeast 425 489 25,000  Level Washington Center
Tue 05:31:20 PM 38.9331 -76.1147 41° Northeast 425 489 25,000 -51 Level Washington Center
Tue 05:32:18 PM 39.0169 -76.0083 45° Northeast 425 489 24,900  Descending Washington Center
Tue 05:33:18 PM 39.1025 -75.9019 44° Northeast 425 489 25,000  Climbing Washington Center
Tue 05:34:19 PM 39.1883 -75.7950 44° Northeast 425 489 24,900  Descending Washington Center
Tue 05:35:19 PM 39.2739 -75.6881 44° Northeast 425 489 25,000 50 Climbing Washington Center
Tue 05:36:20 PM 39.3614 -75.5781 44° Northeast 425 489 25,000  Level Washington Center
Tue 05:38:09 PM 39.5189 -75.3811 44° Northeast 423 487 25,000  Level New York Center
Tue 05:39:09 PM 39.6044 -75.2706 45° Northeast 423 487 25,000  Level New York Center
Tue 05:40:09 PM 39.6989 -75.1444 46° Northeast 428 493 25,000  Level New York Center
Tue 05:41:09 PM 39.7864 -75.0311 45° Northeast 434 499 25,000  Level New York Center
Tue 05:42:09 PM 39.8717 -74.9253 44° Northeast 434 499 25,000  Level New York Center
Tue 05:43:09 PM 39.9392 -74.8372 45° Northeast 434 499 25,000  Level New York Center
Tue 05:44:09 PM 40.0350 -74.7156 44° Northeast 434 499 25,000  Level New York Center
Tue 05:45:09 PM 40.1222 -74.6039 44° Northeast 429 494 25,000  Level New York Center
Tue 05:46:09 PM 40.2114 -74.4836 46° Northeast 429 494 25,000 -150 Level New York Center
Tue 05:47:09 PM 40.3044 -74.3797 40° Northeast 423 487 24,700 -500 Descending New York Center
Tue 05:48:09 PM 40.3989 -74.2811 38° Northeast 423 487 24,000 -500 Descending New York Center
Tue 05:49:09 PM 40.4675 -74.1511 55° Northeast 423 487 23,700 -323 Descending New York Center
Tue 05:51:15 PM 40.5806 -73.8583 63° Northeast 429 494 23,000 -226 Descending Boston Center
Tue 05:52:15 PM 40.6342 -73.7200 63° Northeast 423 487 23,000  Level Boston Center
Tue 05:53:16 PM 40.6794 -73.5867 66° East 423 487 23,000  Level Boston Center
Tue 05:54:16 PM 40.7328 -73.4508 63° Northeast 423 487 23,000  Level Boston Center
Tue 05:55:17 PM 40.7903 -73.3200 60° Northeast 418 481 23,000 -153 Level Boston Center
Tue 05:56:14 PM 40.8703 -73.2142 45° Northeast 401 461 22,700 -718 Descending Boston Center
Tue 05:57:14 PM 40.9561 -73.1133 42° Northeast 401 461 21,600 -1,091 Descending Boston Center
Tue 05:58:15 PM 41.0483 -73.0264 35° Northeast 401 461 20,500 -1,082 Descending Boston Center
Tue 05:59:16 PM 41.1425 -72.9472 32° Northeast 401 461 19,400 -756 Descending Boston Center
Tue 06:00:14 PM 41.2367 -72.8733 31° Northeast 401 461 19,000 -756 Descending Boston Center
Tue 06:01:15 PM 41.3411 -72.7939 30° Northeast 396 456 17,900 -1,339 Descending Boston Center
Tue 06:02:15 PM 41.4247 -72.7336 28° Northeast 386 444 16,300 -1,450 Descending Boston Center
Tue 06:03:15 PM 41.5311 -72.6786 21° North 368 423 15,000 -645 Descending Boston Center
Tue 06:04:16 PM 41.6167 -72.6344 21° North 368 423 15,000 -202 Level Boston Center
Tue 06:05:14 PM 41.7125 -72.5736 25° Northeast 366 421 14,600 -756 Descending Boston Center
Tue 06:06:15 PM 41.7772 -72.4736 49° Northeast 357 411 13,500 -1,289 Descending Boston Center
Tue 06:07:15 PM 41.8481 -72.3564 51° Northeast 370 426 12,000 -1,289 Descending Boston Center
Tue 06:08:16 PM 41.9189 -72.2728 41° Northeast 364 419 10,900 -1,241 Descending Boston Center
Tue 06:09:40 PM 42.0208 -72.1467 43° Northeast 313 360 9,000 -1,339 Descending Boston Center
Tue 06:10:17 PM 42.0519 -72.1044 45° Northeast 318 366 8,200 -1,389 Descending Boston Center
Tue 06:11:15 PM 42.1100 -72.0231 46° Northeast 290 334 6,800 -1,220 Descending Boston Center
Tue 06:12:15 PM 42.1639 -71.9667 38° Northeast 271 312 5,800 -900 Descending Boston Center
Tue 06:13:15 PM 42.2200 -71.9019 40° Northeast 257 296 5,000 -397 Descending Boston Center
Tue 06:14:16 PM 42.2778 -71.8339 41° Northeast 257 296 5,000  Level Boston Center
Tue 06:15:14 PM 42.3256 -71.7831 38° Northeast 251 289 5,000 -252 Level Boston Center
Tue 06:16:15 PM 42.3814 -71.7150 42° Northeast 251 289 4,500 -857 Descending Boston Center
Tue 06:17:34 PM 42.4333 -71.6000 59° Northeast 248 285 3,000 -1,036 Descending KA90
Tue 06:18:34 PM 42.4667 -71.5333 56° Northeast 240 276 2,100 -500 Descending KA90
Tue 06:19:34 PM 42.5000 -71.4667 56° Northeast 208 239 2,000 -250 Descending KA90
Tue 06:20:34 PM 42.4833 -71.4000 109° East 174 200 1,600 -600 Descending KA90
Tue 06:21:34 PM 42.4833 -71.3500 90° East 134 154 800 -481 Descending KA90
Tue 06:23:16 PM 42.4694 -71.2719 104° East 131 151 300 -294 Descending Boston Center
Tue 06:26:00 PM 42.4667 -71.2833 66° East  Level FlightAware Approximate
Tue 06:33:00 PM 42.4699 -71.2890 66° East  Level Estimated
Tue 06:34:00 PM 42.4667 -71.2833 66° East  Level FlightAware Approximate
Tue 06:35:00 PM 42.4699 -71.2890 66° East  Level Estimated
Tue 06:36:00 PM 42.4667 -71.2833 66° East  Level FlightAware Approximate
Tue 06:37:00 PM 42.4699 -71.2890 66° East  Level Estimated

Login

Don't have an account? Register now (free) for customized features, flight alerts, and more!